SBCJ

Carajás Airport

Carajás, Brazil
TAF SBCJ 230400Z 2306/2318 04008KT 5000 BR BKN007 TN24/2311Z TX31/2317Z BECMG 2313/2315 08005KT 8000 BKN015 RMK PEN
Issued Valid From Valid To
Apr-23 @ 04:00 UTC
(6 hours ago)
Apr-23 @ 06:00 UTC
(4 hours ago)
Apr-23 @ 18:00 UTC
(in 8 hours)
Apr-23 @ 06:00 to Apr-23 @ 13:00
TAF SBCJ 230400Z 2306/2318 04008KT 5000 BR BKN007 TN24/2311Z TX31/2317Z
Wind Visibility Clouds Conditions
40° at 8 knots 5,005 meters
  • Broken at 700' AGL
  • Mist
Becoming Apr-23 @ 13:00 to Apr-23 @ 18:00
BECMG 2313/2315 08005KT 8000 BKN015 RMK PEN
Wind Visibility Clouds Conditions
80° at 5 knots 7,998 meters
  • Broken at 1,500' AGL
  • Mist
TAF SBCJ 230400Z 2306/2318 04008KT 5000 BR BKN007 TN24/2311Z TX31/2317Z BECMG 2313/2315 08005KT 8000 BKN015 RMK PEN
Issued Apr-23 @ 04:00 UTC
(6 hours ago)
Valid From Apr-23 @ 06:00 UTC
(4 hours ago)
Valid To Apr-23 @ 18:00 UTC
(in 8 hours)
Apr-23 @ 06:00 - Apr-23 @ 13:00
Wind Visibility
40° at 8 knots 5,005 meters
Clouds
  • Broken at 700' AGL
Conditions
  • Mist
Becoming Apr-23 @ 13:00 - Apr-23 @ 18:00
Wind Visibility
80° at 5 knots 7,998 meters
Clouds
  • Broken at 1,500' AGL
Conditions
  • Mist